Date,TemperatureHighF,TemperatureAvgF,TemperatureLowF,DewpointHighF,DewpointAvgF,DewpointLowF,HumidityHigh,HumidityAvg,HumidityLow,PressureMaxIn,PressureMinIn,WindSpeedMaxMPH,WindSpeedAvgMPH,GustSpeedMaxMPH,PrecipitationSumIn
2013-2-1,49,44,40,49,-46,-100,103,100,94,30.43,30.32,0,-999,0,0.00
2013-2-2,49,44,41,46,-15,-100,101,95,81,30.41,30.25,0,-999,0,0.00
2013-2-3,45,43,42,45,0,-100,101,98,94,30.30,30.18,0,-999,0,0.00
2013-2-4,47,45,43,46,-25,-100,101,97,89,30.19,29.83,0,-999,0,0.00
2013-2-5,48,45,42,45,44,42,99,93,86,29.89,29.76,0,-999,0,0.00
2013-2-6,49,45,43,44,43,40,97,90,72,29.99,29.73,0,-999,0,0.00
2013-2-7,49,43,36,42,39,36,97,84,71,30.20,29.73,0,-999,0,0.00
2013-2-8,46,40,36,44,21,-100,100,93,81,30.30,30.19,0,-999,0,0.00
2013-2-9,44,42,39,42,41,38,98,96,90,30.35,30.26,0,-999,0,0.00
2013-2-10,45,41,35,44,-10,-100,101,95,83,30.38,30.32,0,-999,0,0.00
2013-2-11,45,43,41,44,-3,-100,101,97,93,30.33,30.31,0,-999,0,0.00
2013-2-12,49,46,45,46,16,-100,101,97,85,30.39,30.23,0,-999,0,0.00
2013-2-13,50,46,44,44,41,39,90,82,70,30.48,30.26,0,-999,0,0.00
2013-2-14,45,44,43,45,-37,-100,102,97,82,30.57,30.47,0,-999,0,0.00
2013-2-15,52,46,42,50,-34,-100,103,97,77,30.57,30.18,0,-999,0,0.00
2013-2-16,50,45,42,48,6,-100,101,89,70,30.18,30.09,0,-999,0,0.00
2013-2-17,46,43,39,42,40,37,96,89,74,30.23,30.11,0,-999,0,0.00
2013-2-18,45,43,39,41,40,38,97,88,78,30.11,29.74,0,-999,0,0.00
2013-2-19,48,43,36,41,38,35,96,81,68,30.00,29.74,0,-999,0,0.00
2013-2-20,44,41,34,44,-2,-100,101,96,90,30.02,29.98,0,-999,0,0.00
2013-2-21,46,43,42,42,41,39,94,90,85,30.03,29.98,0,-999,0,0.00
2013-2-22,49,43,40,47,40,35,98,91,71,30.02,29.62,0,-999,0,0.00
2013-2-23,50,44,40,40,38,36,90,78,62,30.33,29.82,0,-999,0,0.00
2013-2-24,46,44,42,41,40,37,91,84,77,30.35,29.85,0,-999,0,0.00
2013-2-25,49,45,41,42,38,34,92,76,56,30.27,29.81,0,-999,0,0.00
2013-2-26,46,43,40,40,38,37,89,83,72,30.32,30.14,0,-999,0,0.00
2013-2-27,47,43,39,43,40,37,95,88,76,30.31,30.17,0,-999,0,0.00
2013-2-28,49,45,41,47,-1,-100,101,97,92,30.28,30.18,0,-999,0,0.00